createdAt,value
2023-03-06T00:00:22.000Z,4.51
2023-03-06T00:01:16.000Z,4.50
2023-03-06T00:02:15.000Z,4.50
2023-03-06T00:03:15.000Z,4.47
2023-03-06T00:04:15.000Z,4.49
2023-03-06T00:05:15.000Z,4.48
2023-03-06T00:06:15.000Z,4.47
2023-03-06T00:07:15.000Z,4.47
2023-03-06T00:08:15.000Z,4.47
2023-03-06T00:09:15.000Z,4.47
2023-03-06T00:10:19.000Z,4.47
2023-03-06T00:11:15.000Z,4.47
2023-03-06T00:12:15.000Z,4.47
2023-03-06T00:13:16.000Z,4.46
2023-03-06T00:14:15.000Z,4.45
2023-03-06T00:15:15.000Z,4.45
2023-03-06T00:16:15.000Z,4.47
2023-03-06T00:17:15.000Z,4.45
2023-03-06T00:18:15.000Z,4.44
2023-03-06T00:19:15.000Z,4.44
2023-03-06T00:20:15.000Z,4.43
2023-03-06T00:21:15.000Z,4.43
2023-03-06T00:22:15.000Z,4.41
2023-03-06T00:23:15.000Z,4.39
2023-03-06T00:24:15.000Z,4.39
2023-03-06T00:25:17.000Z,4.38
2023-03-06T00:26:14.000Z,4.38
2023-03-06T00:27:15.000Z,4.40
2023-03-06T00:28:16.000Z,4.41
2023-03-06T00:29:15.000Z,4.38
2023-03-06T00:30:19.000Z,4.38
2023-03-06T00:31:14.000Z,4.38
2023-03-06T00:32:15.000Z,4.37
2023-03-06T00:33:15.000Z,4.38
2023-03-06T00:34:15.000Z,4.35
2023-03-06T00:35:15.000Z,4.35
2023-03-06T00:36:15.000Z,4.36
2023-03-06T00:37:15.000Z,4.36
2023-03-06T00:38:15.000Z,4.34
2023-03-06T00:39:15.000Z,4.34
2023-03-06T00:40:17.000Z,4.35
2023-03-06T00:41:15.000Z,4.33
2023-03-06T00:42:15.000Z,4.33
2023-03-06T00:43:15.000Z,4.32
2023-03-06T00:44:14.000Z,4.32
2023-03-06T00:45:15.000Z,4.32
2023-03-06T00:46:15.000Z,4.31
2023-03-06T00:47:17.000Z,4.30
2023-03-06T00:48:15.000Z,4.31
2023-03-06T00:49:14.000Z,4.31
2023-03-06T00:50:15.000Z,4.30
2023-03-06T00:51:17.000Z,4.30
2023-03-06T00:52:15.000Z,4.27
2023-03-06T00:53:14.000Z,4.27
2023-03-06T00:54:15.000Z,4.30
2023-03-06T00:55:15.000Z,4.30
2023-03-06T00:56:15.000Z,4.26
2023-03-06T00:57:15.000Z,4.29
2023-03-06T00:58:15.000Z,4.27
2023-03-06T00:59:15.000Z,4.28
2023-03-06T01:00:15.000Z,4.26
2023-03-06T01:01:15.000Z,4.26
2023-03-06T01:02:15.000Z,4.26
2023-03-06T01:03:15.000Z,4.25
2023-03-06T01:04:15.000Z,4.23
2023-03-06T01:05:15.000Z,4.26
2023-03-06T01:06:15.000Z,4.25
2023-03-06T01:07:14.000Z,4.25
2023-03-06T01:08:15.000Z,4.24
2023-03-06T01:09:15.000Z,4.24
2023-03-06T01:10:15.000Z,4.22
2023-03-06T01:11:14.000Z,4.23
2023-03-06T01:12:15.000Z,4.23
2023-03-06T01:13:15.000Z,4.24
2023-03-06T01:14:17.000Z,4.21
2023-03-06T01:15:15.000Z,4.23
2023-03-06T01:16:16.000Z,4.20
2023-03-06T01:17:15.000Z,4.20
2023-03-06T01:18:15.000Z,4.20
2023-03-06T01:19:15.000Z,4.19
2023-03-06T01:20:15.000Z,4.19
2023-03-06T01:21:15.000Z,4.17
2023-03-06T01:22:15.000Z,4.18
2023-03-06T01:23:14.000Z,4.16
2023-03-06T01:24:14.000Z,4.17
2023-03-06T01:25:14.000Z,4.15
2023-03-06T01:26:15.000Z,4.14
2023-03-06T01:27:14.000Z,4.14
2023-03-06T01:28:14.000Z,4.14
2023-03-06T01:29:14.000Z,4.13
2023-03-06T01:30:15.000Z,4.13
2023-03-06T01:31:14.000Z,4.13
2023-03-06T01:32:14.000Z,4.13
2023-03-06T01:33:15.000Z,4.12
2023-03-06T01:34:14.000Z,4.09
2023-03-06T01:35:15.000Z,4.09
2023-03-06T01:36:15.000Z,4.11
2023-03-06T01:37:14.000Z,4.10
2023-03-06T01:38:15.000Z,4.09
2023-03-06T01:39:14.000Z,4.11
2023-03-06T01:40:14.000Z,4.09
2023-03-06T01:41:15.000Z,4.08
2023-03-06T01:42:15.000Z,4.08
2023-03-06T01:43:27.000Z,4.08
2023-03-06T01:44:14.000Z,4.09
2023-03-06T01:45:48.000Z,4.09
2023-03-06T01:46:37.000Z,4.08
2023-03-06T01:47:14.000Z,4.09
2023-03-06T01:48:17.000Z,4.09
2023-03-06T01:49:23.000Z,4.10
2023-03-06T01:50:15.000Z,4.09
2023-03-06T01:51:15.000Z,4.08
2023-03-06T01:52:19.000Z,4.07
2023-03-06T01:53:15.000Z,4.07
2023-03-06T01:54:25.000Z,4.06
2023-03-06T01:55:19.000Z,4.07
2023-03-06T01:56:15.000Z,4.07
2023-03-06T01:57:25.000Z,4.07
2023-03-06T01:58:16.000Z,4.04
2023-03-06T01:59:15.000Z,4.04
2023-03-06T02:00:21.000Z,4.05
2023-03-06T02:01:17.000Z,4.03
2023-03-06T02:02:15.000Z,4.02
2023-03-06T02:03:21.000Z,4.02
2023-03-06T02:04:16.000Z,4.00
2023-03-06T02:05:15.000Z,4.00
2023-03-06T02:06:18.000Z,4.01
2023-03-06T02:07:18.000Z,4.01
2023-03-06T02:08:18.000Z,4.00
2023-03-06T02:09:15.000Z,3.99
2023-03-06T02:10:16.000Z,4.00
2023-03-06T02:11:18.000Z,4.01
2023-03-06T02:12:17.000Z,4.01
2023-03-06T02:13:15.000Z,4.00
2023-03-06T02:14:16.000Z,4.01
2023-03-06T02:15:18.000Z,4.00
2023-03-06T02:16:15.000Z,4.00
2023-03-06T02:17:17.000Z,4.01
2023-03-06T02:18:15.000Z,4.00
2023-03-06T02:19:41.000Z,4.01
2023-03-06T02:20:35.000Z,3.98
2023-03-06T02:21:23.000Z,4.00
2023-03-06T02:22:15.000Z,4.00
2023-03-06T02:23:36.000Z,4.00
2023-03-06T02:24:32.000Z,4.00
2023-03-06T02:26:05.000Z,3.99
2023-03-06T02:26:16.000Z,3.99
2023-03-06T02:27:18.000Z,3.99
2023-03-06T02:28:17.000Z,3.99
2023-03-06T02:29:22.000Z,4.00
2023-03-06T02:30:16.000Z,4.00
2023-03-06T02:31:22.000Z,4.00
2023-03-06T02:32:15.000Z,4.00
2023-03-06T02:33:17.000Z,4.00
2023-03-06T02:34:35.000Z,4.01
2023-03-06T02:35:22.000Z,4.01
2023-03-06T02:36:15.000Z,4.00
2023-03-06T02:37:15.000Z,4.01
2023-03-06T02:38:18.000Z,4.01
2023-03-06T02:39:20.000Z,4.04
2023-03-06T02:40:17.000Z,4.03
2023-03-06T02:41:15.000Z,4.00
2023-03-06T02:42:22.000Z,4.03
2023-03-06T02:43:21.000Z,4.01
2023-03-06T02:44:15.000Z,4.02
2023-03-06T02:45:22.000Z,4.04
2023-03-06T02:46:15.000Z,4.04
2023-03-06T02:47:15.000Z,4.04
2023-03-06T02:48:16.000Z,4.03
2023-03-06T02:49:15.000Z,4.04
2023-03-06T02:50:16.000Z,4.02
2023-03-06T02:51:15.000Z,4.05
2023-03-06T02:52:15.000Z,4.03
2023-03-06T02:53:17.000Z,4.05
2023-03-06T02:54:17.000Z,4.04
2023-03-06T02:55:15.000Z,4.05
2023-03-06T02:56:15.000Z,4.04
2023-03-06T02:57:15.000Z,4.05
2023-03-06T02:58:15.000Z,4.04
2023-03-06T02:59:15.000Z,4.03
2023-03-06T03:00:16.000Z,4.04
2023-03-06T03:01:15.000Z,4.01
2023-03-06T03:02:15.000Z,4.02
2023-03-06T03:03:15.000Z,4.01
2023-03-06T03:04:15.000Z,4.01
2023-03-06T03:05:15.000Z,4.03
2023-03-06T03:06:15.000Z,4.02
2023-03-06T03:07:15.000Z,3.99
2023-03-06T03:08:15.000Z,3.99
2023-03-06T03:09:15.000Z,3.98
2023-03-06T03:10:15.000Z,3.95
2023-03-06T03:11:15.000Z,3.96
2023-03-06T03:12:15.000Z,3.95
2023-03-06T03:13:15.000Z,3.95
2023-03-06T03:14:15.000Z,3.95
2023-03-06T03:15:15.000Z,3.95
2023-03-06T03:16:15.000Z,3.95
2023-03-06T03:17:15.000Z,3.95
2023-03-06T03:18:15.000Z,3.93
2023-03-06T03:19:15.000Z,3.93
2023-03-06T03:20:31.000Z,3.94
2023-03-06T03:21:15.000Z,3.93
2023-03-06T03:22:16.000Z,3.93
2023-03-06T03:23:15.000Z,3.96
2023-03-06T03:24:15.000Z,3.92
2023-03-06T03:25:15.000Z,3.94
2023-03-06T03:26:18.000Z,3.95
2023-03-06T03:27:14.000Z,3.93
2023-03-06T03:28:15.000Z,3.92
2023-03-06T03:29:14.000Z,3.94
2023-03-06T03:30:14.000Z,3.91
2023-03-06T03:31:14.000Z,3.92
2023-03-06T03:32:14.000Z,3.94
2023-03-06T03:33:14.000Z,3.93
2023-03-06T03:34:15.000Z,3.92
2023-03-06T03:35:14.000Z,3.93
2023-03-06T03:36:14.000Z,3.93
2023-03-06T03:37:14.000Z,3.94
2023-03-06T03:38:14.000Z,3.92
2023-03-06T03:39:15.000Z,3.91
2023-03-06T03:40:15.000Z,3.92
2023-03-06T03:41:14.000Z,3.92
2023-03-06T03:42:14.000Z,3.90
2023-03-06T03:43:15.000Z,3.92
2023-03-06T03:44:14.000Z,3.91
2023-03-06T03:45:14.000Z,3.91
2023-03-06T03:46:14.000Z,3.91
2023-03-06T03:47:14.000Z,3.92
2023-03-06T03:48:14.000Z,3.91
2023-03-06T03:49:14.000Z,3.89
2023-03-06T03:50:14.000Z,3.92
2023-03-06T03:51:14.000Z,3.90
2023-03-06T03:52:14.000Z,3.88
2023-03-06T03:53:15.000Z,3.86
2023-03-06T03:54:15.000Z,3.87
2023-03-06T03:55:14.000Z,3.85
2023-03-06T03:56:15.000Z,3.86
2023-03-06T03:57:14.000Z,3.86
2023-03-06T03:58:14.000Z,3.86
2023-03-06T03:59:14.000Z,3.86
2023-03-06T04:00:15.000Z,3.86
2023-03-06T04:01:14.000Z,3.86
2023-03-06T04:02:15.000Z,3.85
2023-03-06T04:03:14.000Z,3.85
2023-03-06T04:04:14.000Z,3.85
2023-03-06T04:05:14.000Z,3.83
2023-03-06T04:06:14.000Z,3.84
2023-03-06T04:07:14.000Z,3.82
2023-03-06T04:08:14.000Z,3.82
2023-03-06T04:09:14.000Z,3.84
2023-03-06T04:10:14.000Z,3.84
2023-03-06T04:11:14.000Z,3.82
2023-03-06T04:12:14.000Z,3.82
2023-03-06T04:13:15.000Z,3.81
2023-03-06T04:14:14.000Z,3.80
2023-03-06T04:15:14.000Z,3.80
2023-03-06T04:16:14.000Z,3.80
2023-03-06T04:17:14.000Z,3.78
2023-03-06T04:18:14.000Z,3.78
2023-03-06T04:19:14.000Z,3.78
2023-03-06T04:20:14.000Z,3.76
2023-03-06T04:21:14.000Z,3.76
2023-03-06T04:22:14.000Z,3.75
2023-03-06T04:23:15.000Z,3.74
2023-03-06T04:24:14.000Z,3.76
2023-03-06T04:25:14.000Z,3.74
2023-03-06T04:26:14.000Z,3.74
2023-03-06T04:27:14.000Z,3.74
2023-03-06T04:28:15.000Z,3.74
2023-03-06T04:29:15.000Z,3.74
2023-03-06T04:30:30.000Z,3.74
2023-03-06T04:31:15.000Z,3.73
2023-03-06T04:32:15.000Z,3.73
2023-03-06T04:33:15.000Z,3.71
2023-03-06T04:34:15.000Z,3.71
2023-03-06T04:35:15.000Z,3.73
2023-03-06T04:36:25.000Z,3.73
2023-03-06T04:37:19.000Z,3.73
2023-03-06T04:38:15.000Z,3.71
2023-03-06T04:39:15.000Z,3.72
2023-03-06T04:40:24.000Z,3.70
2023-03-06T04:41:14.000Z,3.69
2023-03-06T04:42:15.000Z,3.71
2023-03-06T04:43:15.000Z,3.69
2023-03-06T04:44:14.000Z,3.68
2023-03-06T04:45:15.000Z,3.66
2023-03-06T04:46:15.000Z,3.67
2023-03-06T04:47:15.000Z,3.67
2023-03-06T04:48:16.000Z,3.66
2023-03-06T04:49:15.000Z,3.66
2023-03-06T04:50:16.000Z,3.67
2023-03-06T04:51:15.000Z,3.69
2023-03-06T04:52:14.000Z,3.67
2023-03-06T04:53:15.000Z,3.67
2023-03-06T04:54:15.000Z,3.67
2023-03-06T04:55:15.000Z,3.68
2023-03-06T04:56:14.000Z,3.68
2023-03-06T04:57:15.000Z,3.67
2023-03-06T04:58:14.000Z,3.67
2023-03-06T04:59:14.000Z,3.65
2023-03-06T05:00:19.000Z,3.67
2023-03-06T05:01:14.000Z,3.65
2023-03-06T05:02:15.000Z,3.64
2023-03-06T05:03:14.000Z,3.66
2023-03-06T05:04:14.000Z,3.66
2023-03-06T05:05:16.000Z,3.66
2023-03-06T05:06:14.000Z,3.64
2023-03-06T05:07:15.000Z,3.65
2023-03-06T05:08:15.000Z,3.63
2023-03-06T05:09:15.000Z,3.63
2023-03-06T05:10:29.000Z,3.65
2023-03-06T05:11:14.000Z,3.63
2023-03-06T05:12:14.000Z,3.62
2023-03-06T05:13:14.000Z,3.63
2023-03-06T05:14:14.000Z,3.62
2023-03-06T05:15:15.000Z,3.63
2023-03-06T05:16:14.000Z,3.64
2023-03-06T05:17:14.000Z,3.62
2023-03-06T05:18:15.000Z,3.62
2023-03-06T05:19:14.000Z,3.62
2023-03-06T05:20:15.000Z,3.59
2023-03-06T05:21:14.000Z,3.61
2023-03-06T05:22:14.000Z,3.62
2023-03-06T05:23:14.000Z,3.63
2023-03-06T05:24:14.000Z,3.63
2023-03-06T05:25:15.000Z,3.63
2023-03-06T05:26:14.000Z,3.65
2023-03-06T05:27:14.000Z,3.65
2023-03-06T05:28:14.000Z,3.65
2023-03-06T05:29:14.000Z,3.63
2023-03-06T05:30:15.000Z,3.64
2023-03-06T05:31:15.000Z,3.65
2023-03-06T05:32:15.000Z,3.62
2023-03-06T05:33:14.000Z,3.66
2023-03-06T05:34:15.000Z,3.68
2023-03-06T05:35:20.000Z,3.73
2023-03-06T05:36:15.000Z,3.73
2023-03-06T05:37:14.000Z,3.71
2023-03-06T05:38:15.000Z,3.71
2023-03-06T05:39:14.000Z,3.68
2023-03-06T05:40:15.000Z,3.70
2023-03-06T05:41:15.000Z,3.71
2023-03-06T05:42:15.000Z,3.68
2023-03-06T05:43:14.000Z,3.68
2023-03-06T05:44:14.000Z,3.68
2023-03-06T05:45:15.000Z,3.69
2023-03-06T05:46:14.000Z,3.68
2023-03-06T05:47:15.000Z,3.67
2023-03-06T05:48:14.000Z,3.66
2023-03-06T05:49:15.000Z,3.66
2023-03-06T05:50:15.000Z,3.66
2023-03-06T05:51:14.000Z,3.67
2023-03-06T05:52:16.000Z,3.66
2023-03-06T05:53:15.000Z,3.64
2023-03-06T05:54:14.000Z,3.61
2023-03-06T05:55:15.000Z,3.62
2023-03-06T05:56:15.000Z,3.61
2023-03-06T05:57:16.000Z,3.62
2023-03-06T05:58:14.000Z,3.62
2023-03-06T05:59:15.000Z,3.63
2023-03-06T06:00:16.000Z,3.62
2023-03-06T06:01:18.000Z,3.65
2023-03-06T06:02:17.000Z,3.67
2023-03-06T06:03:15.000Z,3.66
2023-03-06T06:04:15.000Z,3.67
2023-03-06T06:05:15.000Z,3.66
2023-03-06T06:06:15.000Z,3.66
2023-03-06T06:07:15.000Z,3.66
2023-03-06T06:08:15.000Z,3.66
2023-03-06T06:09:15.000Z,3.67
2023-03-06T06:10:16.000Z,3.68
2023-03-06T06:11:17.000Z,3.66
2023-03-06T06:12:15.000Z,3.66
2023-03-06T06:13:15.000Z,3.68
2023-03-06T06:14:15.000Z,3.64
2023-03-06T06:15:15.000Z,3.67
2023-03-06T06:16:15.000Z,3.66
2023-03-06T06:17:15.000Z,3.63
2023-03-06T06:18:15.000Z,3.65
2023-03-06T06:19:19.000Z,3.65
2023-03-06T06:20:16.000Z,3.63
2023-03-06T06:21:15.000Z,3.63
2023-03-06T06:22:15.000Z,3.63
2023-03-06T06:23:15.000Z,3.63
2023-03-06T06:24:17.000Z,3.63
2023-03-06T06:25:15.000Z,3.62
2023-03-06T06:26:15.000Z,3.62
2023-03-06T06:27:15.000Z,3.62
2023-03-06T06:28:15.000Z,3.61
2023-03-06T06:29:15.000Z,3.58
2023-03-06T06:30:15.000Z,3.61
2023-03-06T06:31:14.000Z,3.61
2023-03-06T06:32:14.000Z,3.61
2023-03-06T06:33:14.000Z,3.61
2023-03-06T06:34:15.000Z,3.62
2023-03-06T06:35:14.000Z,3.62
2023-03-06T06:36:16.000Z,3.63
2023-03-06T06:37:14.000Z,3.61
2023-03-06T06:38:14.000Z,3.60
2023-03-06T06:39:16.000Z,3.60
2023-03-06T06:40:14.000Z,3.59
2023-03-06T06:41:14.000Z,3.57
2023-03-06T06:42:14.000Z,3.57
2023-03-06T06:43:14.000Z,3.60
2023-03-06T06:44:15.000Z,3.59
2023-03-06T06:45:14.000Z,3.58
2023-03-06T06:46:14.000Z,3.60
2023-03-06T06:46:14.000Z,3.60
2023-03-06T06:47:28.000Z,3.57
2023-03-06T06:48:14.000Z,3.59
2023-03-06T06:49:14.000Z,3.60
2023-03-06T06:50:14.000Z,3.59
2023-03-06T06:51:14.000Z,3.61
2023-03-06T06:52:14.000Z,3.61
2023-03-06T06:53:14.000Z,3.61
2023-03-06T06:54:14.000Z,3.62
2023-03-06T06:55:14.000Z,3.62
2023-03-06T06:56:14.000Z,3.62
2023-03-06T06:57:14.000Z,3.63
2023-03-06T06:58:14.000Z,3.62
2023-03-06T06:59:14.000Z,3.62
2023-03-06T07:00:16.000Z,3.63
2023-03-06T07:01:15.000Z,3.65
2023-03-06T07:02:15.000Z,3.63
2023-03-06T07:03:15.000Z,3.62
2023-03-06T07:04:15.000Z,3.60
2023-03-06T07:05:16.000Z,3.59
2023-03-06T07:06:15.000Z,3.61
2023-03-06T07:07:15.000Z,3.62
2023-03-06T07:08:15.000Z,3.57
2023-03-06T07:09:15.000Z,3.59
2023-03-06T07:10:15.000Z,3.60
2023-03-06T07:11:17.000Z,3.61
2023-03-06T07:12:15.000Z,3.62
2023-03-06T07:13:15.000Z,3.62
2023-03-06T07:14:15.000Z,3.63
2023-03-06T07:15:16.000Z,3.63
2023-03-06T07:16:16.000Z,3.67
2023-03-06T07:17:15.000Z,3.67
2023-03-06T07:18:15.000Z,3.66
2023-03-06T07:19:15.000Z,3.67
2023-03-06T07:20:15.000Z,3.68
2023-03-06T07:21:15.000Z,3.68
2023-03-06T07:22:15.000Z,3.69
2023-03-06T07:23:15.000Z,3.72
2023-03-06T07:24:15.000Z,3.73
2023-03-06T07:25:15.000Z,3.73
2023-03-06T07:26:15.000Z,3.74
2023-03-06T07:27:15.000Z,3.76
2023-03-06T07:28:15.000Z,3.78
2023-03-06T07:29:15.000Z,3.79
2023-03-06T07:30:15.000Z,3.79
2023-03-06T07:31:15.000Z,3.79
2023-03-06T07:32:15.000Z,3.80
2023-03-06T07:33:15.000Z,3.81
2023-03-06T07:34:15.000Z,3.84
2023-03-06T07:35:15.000Z,3.83
2023-03-06T07:36:15.000Z,3.81
2023-03-06T07:37:15.000Z,3.83
2023-03-06T07:38:15.000Z,3.84
2023-03-06T07:39:14.000Z,3.85
2023-03-06T07:40:15.000Z,3.88
2023-03-06T07:41:16.000Z,3.85
2023-03-06T07:42:15.000Z,3.86
2023-03-06T07:43:15.000Z,3.82
2023-03-06T07:44:15.000Z,3.84
2023-03-06T07:45:15.000Z,3.85
2023-03-06T07:46:15.000Z,3.86
2023-03-06T07:47:14.000Z,3.89
2023-03-06T07:48:14.000Z,3.90
2023-03-06T07:49:15.000Z,3.90
2023-03-06T07:50:15.000Z,3.90
2023-03-06T07:51:17.000Z,3.92
2023-03-06T07:52:15.000Z,3.92
2023-03-06T07:53:14.000Z,3.89
2023-03-06T07:54:15.000Z,3.92
2023-03-06T07:55:15.000Z,3.91
2023-03-06T07:56:15.000Z,3.93
2023-03-06T07:57:14.000Z,3.93
2023-03-06T07:58:15.000Z,3.91
2023-03-06T07:59:15.000Z,3.93
2023-03-06T08:00:15.000Z,3.94
2023-03-06T08:01:17.000Z,3.92
2023-03-06T08:02:15.000Z,3.93
2023-03-06T08:03:15.000Z,3.93
2023-03-06T08:04:14.000Z,3.92
2023-03-06T08:05:15.000Z,3.90
2023-03-06T08:06:20.000Z,3.90
2023-03-06T08:07:14.000Z,3.91
2023-03-06T08:08:14.000Z,3.91
2023-03-06T08:09:15.000Z,3.93
2023-03-06T08:10:15.000Z,3.93
2023-03-06T08:11:17.000Z,3.94
2023-03-06T08:12:15.000Z,3.94
2023-03-06T08:13:15.000Z,3.97
2023-03-06T08:14:15.000Z,3.97
2023-03-06T08:15:15.000Z,3.97
2023-03-06T08:16:22.000Z,4.01
2023-03-06T08:17:15.000Z,3.97
2023-03-06T08:18:14.000Z,3.95
2023-03-06T08:19:15.000Z,3.98
2023-03-06T08:20:16.000Z,3.98
2023-03-06T08:21:17.000Z,3.94
2023-03-06T08:22:15.000Z,3.95
2023-03-06T08:23:15.000Z,3.95
2023-03-06T08:24:15.000Z,3.93
2023-03-06T08:25:15.000Z,3.93
2023-03-06T08:26:23.000Z,3.92
2023-03-06T08:27:14.000Z,3.92
2023-03-06T08:28:14.000Z,3.92
2023-03-06T08:29:15.000Z,3.95
2023-03-06T08:30:15.000Z,3.96
2023-03-06T08:31:31.000Z,3.97
2023-03-06T08:32:15.000Z,4.01
2023-03-06T08:33:15.000Z,4.01
2023-03-06T08:34:17.000Z,4.04
2023-03-06T08:35:15.000Z,4.05
2023-03-06T08:36:15.000Z,4.06
2023-03-06T08:37:15.000Z,4.05
2023-03-06T08:38:15.000Z,4.07
2023-03-06T08:39:15.000Z,4.08
2023-03-06T08:40:15.000Z,4.10
2023-03-06T08:41:18.000Z,4.11
2023-03-06T08:42:30.000Z,4.12
2023-03-06T08:43:49.000Z,4.13
2023-03-06T08:44:40.000Z,4.16
2023-03-06T08:45:41.000Z,4.17
2023-03-06T08:47:29.000Z,4.22
2023-03-06T08:48:17.000Z,4.21
2023-03-06T08:49:17.000Z,4.25
2023-03-06T08:50:18.000Z,4.28
2023-03-06T08:51:18.000Z,4.31
2023-03-06T08:52:18.000Z,4.32
2023-03-06T08:53:18.000Z,4.36
2023-03-06T08:54:17.000Z,4.38
2023-03-06T08:55:17.000Z,4.41
2023-03-06T08:56:21.000Z,4.43
2023-03-06T08:57:17.000Z,4.43
2023-03-06T08:58:17.000Z,4.44
2023-03-06T08:59:17.000Z,4.47
2023-03-06T09:00:18.000Z,4.47
2023-03-06T09:01:27.000Z,4.48
2023-03-06T09:02:17.000Z,4.45
2023-03-06T09:03:17.000Z,4.45
2023-03-06T09:04:17.000Z,4.44
2023-03-06T09:05:17.000Z,4.44
2023-03-06T09:06:17.000Z,4.45
2023-03-06T09:07:16.000Z,4.47
2023-03-06T09:08:16.000Z,4.48
2023-03-06T09:09:16.000Z,4.49
2023-03-06T09:10:20.000Z,4.49
2023-03-06T09:11:18.000Z,4.50
2023-03-06T09:12:16.000Z,4.50
2023-03-06T09:13:16.000Z,4.52
2023-03-06T09:14:17.000Z,4.49
2023-03-06T09:15:18.000Z,4.47
2023-03-06T09:16:17.000Z,4.50
2023-03-06T09:17:16.000Z,4.49
2023-03-06T09:18:16.000Z,4.49
2023-03-06T09:19:17.000Z,4.49
2023-03-06T09:20:17.000Z,4.51
2023-03-06T09:21:21.000Z,4.50
2023-03-06T09:22:16.000Z,4.52
2023-03-06T09:23:16.000Z,4.49
2023-03-06T09:24:17.000Z,4.49
2023-03-06T09:25:19.000Z,4.48
2023-03-06T09:26:17.000Z,4.46
2023-03-06T09:27:16.000Z,4.48
2023-03-06T09:28:17.000Z,4.49
2023-03-06T09:29:17.000Z,4.50
2023-03-06T09:30:17.000Z,4.50
2023-03-06T09:31:17.000Z,4.50
2023-03-06T09:32:17.000Z,4.51
2023-03-06T09:33:17.000Z,4.51
2023-03-06T09:34:17.000Z,4.50
2023-03-06T09:35:17.000Z,4.51
2023-03-06T09:36:19.000Z,4.50
2023-03-06T09:37:17.000Z,4.51
2023-03-06T09:38:17.000Z,4.51
2023-03-06T09:39:16.000Z,4.50
2023-03-06T09:40:31.000Z,4.49
2023-03-06T09:41:32.000Z,4.46
2023-03-06T09:42:19.000Z,4.48
2023-03-06T09:43:39.000Z,4.47
2023-03-06T09:44:20.000Z,4.44
2023-03-06T09:45:19.000Z,4.45
2023-03-06T09:46:27.000Z,4.48
2023-03-06T09:47:39.000Z,4.47
2023-03-06T09:48:23.000Z,4.48
2023-03-06T09:49:32.000Z,4.49
2023-03-06T09:50:26.000Z,4.48
2023-03-06T09:51:22.000Z,4.48
2023-03-06T09:52:41.000Z,4.48
2023-03-06T09:53:37.000Z,4.47
2023-03-06T09:54:27.000Z,4.47
2023-03-06T09:55:34.000Z,4.47
2023-03-06T09:56:20.000Z,4.48
2023-03-06T09:57:21.000Z,4.46
2023-03-06T09:58:23.000Z,4.47
2023-03-06T09:59:22.000Z,4.45
2023-03-06T10:00:25.000Z,4.44
2023-03-06T10:01:24.000Z,4.47
2023-03-06T10:02:24.000Z,4.45
2023-03-06T10:03:27.000Z,4.45
2023-03-06T10:04:30.000Z,4.49
2023-03-06T10:05:24.000Z,4.50
2023-03-06T10:06:27.000Z,4.50
2023-03-06T10:07:23.000Z,4.52
2023-03-06T10:08:36.000Z,4.51
2023-03-06T10:09:22.000Z,4.52
2023-03-06T10:10:21.000Z,4.54
2023-03-06T10:11:23.000Z,4.57
2023-03-06T10:12:23.000Z,4.57
2023-03-06T10:13:26.000Z,4.60
2023-03-06T10:14:30.000Z,4.57
2023-03-06T10:15:25.000Z,4.58
2023-03-06T10:16:25.000Z,4.58
2023-03-06T10:17:21.000Z,4.59
2023-03-06T10:18:17.000Z,4.58
2023-03-06T10:19:18.000Z,4.62
2023-03-06T10:20:26.000Z,4.63
2023-03-06T10:21:27.000Z,4.65
2023-03-06T10:22:38.000Z,4.68
2023-03-06T10:23:30.000Z,4.71
2023-03-06T10:24:40.000Z,4.73
2023-03-06T10:25:26.000Z,4.72
2023-03-06T10:26:22.000Z,4.70
2023-03-06T10:27:27.000Z,4.73
2023-03-06T10:28:22.000Z,4.75
2023-03-06T10:29:29.000Z,4.76
2023-03-06T10:30:29.000Z,4.80
2023-03-06T10:31:22.000Z,4.81
2023-03-06T10:32:25.000Z,4.83
2023-03-06T10:33:27.000Z,4.87
2023-03-06T10:34:22.000Z,4.86
2023-03-06T10:35:23.000Z,4.88
2023-03-06T10:36:19.000Z,4.87
2023-03-06T10:37:20.000Z,4.90
2023-03-06T10:38:23.000Z,4.92
2023-03-06T10:39:20.000Z,4.94
2023-03-06T10:40:20.000Z,4.94
2023-03-06T10:41:23.000Z,4.95
2023-03-06T10:42:17.000Z,4.97
2023-03-06T10:43:17.000Z,4.99
2023-03-06T10:44:19.000Z,4.96
2023-03-06T10:45:17.000Z,4.98
2023-03-06T10:46:26.000Z,4.98
2023-03-06T10:47:28.000Z,4.95
2023-03-06T10:48:23.000Z,4.98
2023-03-06T10:49:27.000Z,4.99
2023-03-06T10:50:26.000Z,4.98
2023-03-06T10:51:22.000Z,5.00
2023-03-06T10:52:21.000Z,4.99
2023-03-06T10:53:26.000Z,4.99
2023-03-06T10:54:18.000Z,4.98
2023-03-06T10:55:27.000Z,4.95
2023-03-06T10:56:37.000Z,4.95
2023-03-06T10:57:27.000Z,4.96
2023-03-06T10:58:29.000Z,4.99
2023-03-06T10:59:23.000Z,5.01
2023-03-06T11:00:27.000Z,5.04
2023-03-06T11:01:20.000Z,5.04
2023-03-06T11:02:26.000Z,5.03
2023-03-06T11:03:20.000Z,5.04
2023-03-06T11:04:31.000Z,5.02
2023-03-06T11:05:18.000Z,5.00
2023-03-06T11:06:26.000Z,5.04
2023-03-06T11:07:25.000Z,5.02
2023-03-06T11:08:19.000Z,5.03
2023-03-06T11:09:22.000Z,5.04
2023-03-06T11:10:17.000Z,5.04
2023-03-06T11:11:21.000Z,5.03
2023-03-06T11:12:26.000Z,5.06
2023-03-06T11:13:21.000Z,5.06
2023-03-06T11:14:19.000Z,5.05
2023-03-06T11:15:19.000Z,5.07
2023-03-06T11:16:24.000Z,5.10
2023-03-06T11:17:25.000Z,5.12
2023-03-06T11:18:29.000Z,5.12
2023-03-06T11:19:23.000Z,5.13
2023-03-06T11:20:29.000Z,5.16
2023-03-06T11:21:23.000Z,5.16
2023-03-06T11:22:17.000Z,5.15
2023-03-06T11:23:33.000Z,5.17
2023-03-06T11:24:17.000Z,5.19
2023-03-06T11:25:19.000Z,5.19
2023-03-06T11:26:32.000Z,5.22
2023-03-06T11:27:28.000Z,5.22
2023-03-06T11:28:32.000Z,5.22
2023-03-06T11:29:25.000Z,5.24
2023-03-06T11:30:22.000Z,5.24
2023-03-06T11:31:20.000Z,5.24
2023-03-06T11:32:21.000Z,5.24
2023-03-06T11:33:26.000Z,5.23
2023-03-06T11:34:27.000Z,5.24
2023-03-06T11:35:25.000Z,5.26
2023-03-06T11:36:27.000Z,5.24
2023-03-06T11:37:27.000Z,5.25
2023-03-06T11:38:28.000Z,5.23
2023-03-06T11:39:38.000Z,5.24
2023-03-06T11:40:28.000Z,5.24
2023-03-06T11:41:31.000Z,5.21
2023-03-06T11:42:24.000Z,5.23
2023-03-06T11:43:26.000Z,5.21
2023-03-06T11:44:39.000Z,5.23
2023-03-06T11:45:39.000Z,5.23
2023-03-06T11:46:22.000Z,5.21
2023-03-06T11:47:22.000Z,5.23
2023-03-06T11:48:22.000Z,5.20
2023-03-06T11:49:25.000Z,5.20
2023-03-06T11:50:36.000Z,5.21
2023-03-06T11:51:24.000Z,5.24
2023-03-06T11:52:23.000Z,5.20
2023-03-06T11:53:28.000Z,5.23
2023-03-06T11:54:16.000Z,5.23
2023-03-06T11:55:43.000Z,5.22
2023-03-06T11:56:41.000Z,5.24
2023-03-06T11:57:20.000Z,5.22
2023-03-06T11:58:37.000Z,5.25
2023-03-06T11:59:27.000Z,5.24
2023-03-06T12:00:47.000Z,5.23
2023-03-06T12:01:27.000Z,5.25
2023-03-06T12:02:26.000Z,5.25
2023-03-06T12:03:36.000Z,5.26
2023-03-06T12:04:35.000Z,5.24
2023-03-06T12:05:37.000Z,5.24
2023-03-06T12:06:27.000Z,5.25
2023-03-06T12:07:27.000Z,5.24
2023-03-06T12:08:27.000Z,5.25
2023-03-06T12:09:26.000Z,5.24
2023-03-06T12:10:29.000Z,5.24
2023-03-06T12:11:24.000Z,5.21
2023-03-06T12:12:27.000Z,5.19
2023-03-06T12:13:27.000Z,5.19
2023-03-06T12:14:32.000Z,5.18
2023-03-06T12:15:28.000Z,5.18
2023-03-06T12:16:31.000Z,5.18
2023-03-06T12:17:27.000Z,5.18
2023-03-06T12:18:27.000Z,5.16
2023-03-06T12:19:30.000Z,5.16
2023-03-06T12:20:41.000Z,5.13
2023-03-06T12:21:29.000Z,5.12
2023-03-06T12:22:29.000Z,5.14
2023-03-06T12:23:34.000Z,5.12
2023-03-06T12:24:53.000Z,5.10
2023-03-06T12:25:36.000Z,5.11
2023-03-06T12:26:37.000Z,5.10
2023-03-06T12:27:39.000Z,5.09
2023-03-06T12:28:29.000Z,5.12
2023-03-06T12:29:36.000Z,5.14
2023-03-06T12:30:27.000Z,5.12
2023-03-06T12:31:28.000Z,5.20
2023-03-06T12:32:31.000Z,5.14
2023-03-06T12:33:29.000Z,5.14
2023-03-06T12:34:27.000Z,5.13
2023-03-06T12:35:26.000Z,5.16
2023-03-06T12:36:26.000Z,5.13
2023-03-06T12:37:26.000Z,5.16
2023-03-06T12:38:31.000Z,5.20
2023-03-06T12:39:35.000Z,5.19
2023-03-06T12:40:37.000Z,5.19
2023-03-06T12:41:35.000Z,5.22
2023-03-06T12:42:46.000Z,5.21
2023-03-06T12:43:28.000Z,5.23
2023-03-06T12:44:32.000Z,5.24
2023-03-06T12:45:31.000Z,5.31
2023-03-06T12:46:23.000Z,5.27
2023-03-06T12:47:20.000Z,5.25
2023-03-06T12:48:23.000Z,5.26
2023-03-06T12:49:24.000Z,5.24
2023-03-06T12:50:35.000Z,5.24
2023-03-06T12:51:19.000Z,5.28
2023-03-06T12:52:25.000Z,5.29
2023-03-06T12:53:25.000Z,5.25
2023-03-06T12:54:23.000Z,5.29
2023-03-06T12:55:18.000Z,5.31
2023-03-06T12:56:17.000Z,5.33
2023-03-06T12:57:16.000Z,5.36
2023-03-06T12:58:26.000Z,5.38
2023-03-06T12:59:26.000Z,5.39
2023-03-06T13:00:26.000Z,5.42
2023-03-06T13:01:28.000Z,5.42
2023-03-06T13:02:50.000Z,5.43
2023-03-06T13:03:33.000Z,5.44
2023-03-06T13:04:26.000Z,5.47
2023-03-06T13:05:34.000Z,5.51
2023-03-06T13:06:27.000Z,5.52
2023-03-06T13:07:32.000Z,5.53
2023-03-06T13:08:35.000Z,5.54
2023-03-06T13:09:27.000Z,5.55
2023-03-06T13:10:27.000Z,5.56
2023-03-06T13:11:27.000Z,5.56
2023-03-06T13:12:27.000Z,5.58
2023-03-06T13:13:27.000Z,5.60
2023-03-06T13:14:26.000Z,5.58
2023-03-06T13:15:27.000Z,5.60
2023-03-06T13:16:30.000Z,5.60
2023-03-06T13:17:26.000Z,5.61
2023-03-06T13:18:45.000Z,5.61